sensor_id;sensor_type;location;lat;lon;timestamp;pressure;altitude;pressure_sealevel;temperature;humidity
25658;BME280;13517;59.320;18.042;2023-07-24T00:00:49;99841.28;;;12.74;100.00
25658;BME280;13517;59.320;18.042;2023-07-24T00:03:14;99820.56;;;12.63;100.00
25658;BME280;13517;59.320;18.042;2023-07-24T00:05:39;99818.41;;;12.57;100.00
25658;BME280;13517;59.320;18.042;2023-07-24T00:08:05;99843.56;;;12.69;100.00
25658;BME280;13517;59.320;18.042;2023-07-24T00:10:32;99795.78;;;12.36;100.00
25658;BME280;13517;59.320;18.042;2023-07-24T00:12:57;99813.50;;;12.50;100.00
25658;BME280;13517;59.320;18.042;2023-07-24T00:15:23;99829.97;;;12.59;100.00
25658;BME280;13517;59.320;18.042;2023-07-24T00:17:48;99774.06;;;12.26;100.00
25658;BME280;13517;59.320;18.042;2023-07-24T00:20:13;99828.81;;;12.61;100.00
25658;BME280;13517;59.320;18.042;2023-07-24T00:22:39;99786.53;;;12.39;100.00
25658;BME280;13517;59.320;18.042;2023-07-24T00:25:05;99786.66;;;12.37;100.00
25658;BME280;13517;59.320;18.042;2023-07-24T00:27:31;99847.13;;;12.69;100.00
25658;BME280;13517;59.320;18.042;2023-07-24T00:29:56;99793.19;;;12.35;100.00
25658;BME280;13517;59.320;18.042;2023-07-24T00:32:22;99820.81;;;12.50;100.00
25658;BME280;13517;59.320;18.042;2023-07-24T00:34:47;99848.53;;;12.63;100.00
25658;BME280;13517;59.320;18.042;2023-07-24T00:37:13;99780.59;;;12.24;100.00
25658;BME280;13517;59.320;18.042;2023-07-24T00:39:38;99840.66;;;12.60;100.00
25658;BME280;13517;59.320;18.042;2023-07-24T00:42:04;99795.13;;;12.23;100.00
25658;BME280;13517;59.320;18.042;2023-07-24T00:44:29;99810.03;;;12.38;100.00
25658;BME280;13517;59.320;18.042;2023-07-24T00:46:54;99821.16;;;12.35;100.00
25658;BME280;13517;59.320;18.042;2023-07-24T00:49:20;99828.47;;;12.45;100.00
25658;BME280;13517;59.320;18.042;2023-07-24T00:51:46;99806.53;;;12.26;100.00
25658;BME280;13517;59.320;18.042;2023-07-24T00:54:16;99782.53;;;12.12;100.00
25658;BME280;13517;59.320;18.042;2023-07-24T00:56:42;99802.53;;;12.21;100.00
25658;BME280;13517;59.320;18.042;2023-07-24T00:59:08;99813.09;;;12.24;100.00
25658;BME280;13517;59.320;18.042;2023-07-24T01:01:35;99795.25;;;12.21;100.00
25658;BME280;13517;59.320;18.042;2023-07-24T01:04:03;99797.84;;;12.23;100.00
25658;BME280;13517;59.320;18.042;2023-07-24T01:06:29;99797.13;;;12.21;100.00
25658;BME280;13517;59.320;18.042;2023-07-24T01:08:55;99793.94;;;12.16;100.00
25658;BME280;13517;59.320;18.042;2023-07-24T01:11:47;99817.66;;;12.23;100.00
25658;BME280;13517;59.320;18.042;2023-07-24T01:16:56;99833.81;;;12.35;100.00
25658;BME280;13517;59.320;18.042;2023-07-24T01:19:37;99827.56;;;12.34;100.00
25658;BME280;13517;59.320;18.042;2023-07-24T01:25:31;99831.03;;;12.25;100.00
25658;BME280;13517;59.320;18.042;2023-07-24T01:27:57;99809.31;;;12.15;100.00
25658;BME280;13517;59.320;18.042;2023-07-24T01:30:22;99826.50;;;12.25;100.00
25658;BME280;13517;59.320;18.042;2023-07-24T01:32:49;99796.78;;;12.14;100.00
25658;BME280;13517;59.320;18.042;2023-07-24T01:35:14;99809.91;;;12.19;100.00
25658;BME280;13517;59.320;18.042;2023-07-24T01:37:41;99793.03;;;12.05;100.00
25658;BME280;13517;59.320;18.042;2023-07-24T01:40:08;99777.00;;;12.02;100.00
25658;BME280;13517;59.320;18.042;2023-07-24T01:42:35;99806.53;;;12.26;100.00
25658;BME280;13517;59.320;18.042;2023-07-24T01:45:02;99745.59;;;11.90;100.00
25658;BME280;13517;59.320;18.042;2023-07-24T01:47:28;99791.38;;;12.14;100.00
25658;BME280;13517;59.320;18.042;2023-07-24T01:49:53;99807.66;;;12.24;100.00
25658;BME280;13517;59.320;18.042;2023-07-24T01:52:19;99807.78;;;12.22;100.00
25658;BME280;13517;59.320;18.042;2023-07-24T01:54:44;99756.28;;;11.91;100.00
25658;BME280;13517;59.320;18.042;2023-07-24T01:57:10;99764.28;;;11.93;100.00
25658;BME280;13517;59.320;18.042;2023-07-24T01:59:35;99718.44;;;11.70;100.00
25658;BME280;13517;59.320;18.042;2023-07-24T02:02:00;99790.78;;;12.10;100.00
25658;BME280;13517;59.320;18.042;2023-07-24T02:04:26;99809.38;;;12.25;100.00
25658;BME280;13517;59.320;18.042;2023-07-24T02:06:51;99766.47;;;11.99;100.00
25658;BME280;13517;59.320;18.042;2023-07-24T02:09:20;99816.66;;;12.24;100.00
25658;BME280;13517;59.320;18.042;2023-07-24T02:11:45;99761.47;;;11.94;100.00
25658;BME280;13517;59.320;18.042;2023-07-24T02:14:12;99741.44;;;11.85;100.00
25658;BME280;13517;59.320;18.042;2023-07-24T02:16:38;99808.84;;;12.31;100.00
25658;BME280;13517;59.320;18.042;2023-07-24T02:19:03;99731.22;;;11.89;100.00
25658;BME280;13517;59.320;18.042;2023-07-24T02:21:29;99776.00;;;12.15;100.00
25658;BME280;13517;59.320;18.042;2023-07-24T02:23:54;99743.94;;;11.98;100.00
25658;BME280;13517;59.320;18.042;2023-07-24T02:26:19;99804.63;;;12.38;100.00
25658;BME280;13517;59.320;18.042;2023-07-24T02:28:45;99744.75;;;12.10;100.00
25658;BME280;13517;59.320;18.042;2023-07-24T02:31:11;99765.81;;;12.28;100.00
25658;BME280;13517;59.320;18.042;2023-07-24T02:33:36;99778.72;;;12.46;100.00
25658;BME280;13517;59.320;18.042;2023-07-24T02:36:02;99765.50;;;12.52;100.00
25658;BME280;13517;59.320;18.042;2023-07-24T02:38:27;99801.41;;;12.86;100.00
25658;BME280;13517;59.320;18.042;2023-07-24T02:40:53;99747.28;;;12.64;100.00
25658;BME280;13517;59.320;18.042;2023-07-24T02:43:18;99750.03;;;12.74;100.00
25658;BME280;13517;59.320;18.042;2023-07-24T02:45:43;99755.50;;;12.94;100.00
25658;BME280;13517;59.320;18.042;2023-07-24T02:48:09;99773.53;;;13.25;100.00
25658;BME280;13517;59.320;18.042;2023-07-24T02:50:34;99759.00;;;13.26;100.00
25658;BME280;13517;59.320;18.042;2023-07-24T02:53:00;99808.00;;;13.73;100.00
25658;BME280;13517;59.320;18.042;2023-07-24T02:55:26;99784.72;;;13.81;100.00
25658;BME280;13517;59.320;18.042;2023-07-24T02:57:51;99802.13;;;14.08;100.00
25658;BME280;13517;59.320;18.042;2023-07-24T03:00:17;99757.84;;;13.97;100.00
25658;BME280;13517;59.320;18.042;2023-07-24T03:02:42;99794.63;;;14.39;100.00
25658;BME280;13517;59.320;18.042;2023-07-24T03:05:08;99763.16;;;14.37;100.00
25658;BME280;13517;59.320;18.042;2023-07-24T03:07:33;99798.53;;;14.75;100.00
25658;BME280;13517;59.320;18.042;2023-07-24T03:09:59;99753.09;;;14.57;100.00
25658;BME280;13517;59.320;18.042;2023-07-24T03:12:24;99805.22;;;15.08;100.00
25658;BME280;13517;59.320;18.042;2023-07-24T03:14:50;99762.13;;;14.86;100.00
25658;BME280;13517;59.320;18.042;2023-07-24T03:17:15;99752.69;;;14.90;100.00
25658;BME280;13517;59.320;18.042;2023-07-24T03:19:41;99733.28;;;15.21;100.00
25658;BME280;13517;59.320;18.042;2023-07-24T03:22:07;99799.50;;;16.20;100.00
25658;BME280;13517;59.320;18.042;2023-07-24T03:24:33;99789.38;;;16.31;100.00
25658;BME280;13517;59.320;18.042;2023-07-24T03:26:58;99772.25;;;16.73;100.00
25658;BME280;13517;59.320;18.042;2023-07-24T03:29:25;99785.03;;;16.81;100.00
25658;BME280;13517;59.320;18.042;2023-07-24T03:31:51;99806.75;;;16.91;100.00
25658;BME280;13517;59.320;18.042;2023-07-24T03:34:16;99772.38;;;16.64;100.00
25658;BME280;13517;59.320;18.042;2023-07-24T03:36:42;99814.88;;;16.48;100.00
25658;BME280;13517;59.320;18.042;2023-07-24T03:39:09;99812.13;;;16.22;100.00
25658;BME280;13517;59.320;18.042;2023-07-24T03:41:34;99805.16;;;16.01;100.00
25658;BME280;13517;59.320;18.042;2023-07-24T03:44:00;99771.56;;;15.74;100.00
25658;BME280;13517;59.320;18.042;2023-07-24T03:46:25;99763.56;;;15.54;100.00
25658;BME280;13517;59.320;18.042;2023-07-24T03:48:51;99806.41;;;15.70;100.00
25658;BME280;13517;59.320;18.042;2023-07-24T03:51:16;99795.19;;;15.55;100.00
25658;BME280;13517;59.320;18.042;2023-07-24T03:53:42;99766.09;;;15.37;100.00
25658;BME280;13517;59.320;18.042;2023-07-24T03:56:07;99788.19;;;15.52;100.00
25658;BME280;13517;59.320;18.042;2023-07-24T03:58:32;99746.97;;;15.29;100.00
25658;BME280;13517;59.320;18.042;2023-07-24T04:00:58;99785.72;;;15.59;100.00
25658;BME280;13517;59.320;18.042;2023-07-24T04:03:23;99806.31;;;15.80;100.00
25658;BME280;13517;59.320;18.042;2023-07-24T04:05:49;99773.56;;;15.72;100.00
25658;BME280;13517;59.320;18.042;2023-07-24T04:08:14;99785.25;;;15.82;100.00
25658;BME280;13517;59.320;18.042;2023-07-24T04:10:39;99768.19;;;15.80;100.00
25658;BME280;13517;59.320;18.042;2023-07-24T04:13:05;99773.88;;;15.87;100.00
25658;BME280;13517;59.320;18.042;2023-07-24T04:15:30;99771.38;;;15.93;100.00
25658;BME280;13517;59.320;18.042;2023-07-24T04:17:56;99779.94;;;15.99;100.00
25658;BME280;13517;59.320;18.042;2023-07-24T04:20:21;99793.88;;;16.14;100.00
25658;BME280;13517;59.320;18.042;2023-07-24T04:22:46;99794.06;;;16.20;100.00
25658;BME280;13517;59.320;18.042;2023-07-24T04:25:12;99783.50;;;16.17;100.00
25658;BME280;13517;59.320;18.042;2023-07-24T04:27:37;99791.78;;;16.34;100.00
25658;BME280;13517;59.320;18.042;2023-07-24T04:30:03;99749.03;;;16.08;100.00
25658;BME280;13517;59.320;18.042;2023-07-24T04:32:28;99735.84;;;15.95;100.00
25658;BME280;13517;59.320;18.042;2023-07-24T04:34:54;99761.38;;;16.20;100.00
25658;BME280;13517;59.320;18.042;2023-07-24T04:37:19;99745.31;;;16.09;100.00
25658;BME280;13517;59.320;18.042;2023-07-24T04:39:44;99787.97;;;16.53;100.00
25658;BME280;13517;59.320;18.042;2023-07-24T04:42:10;99784.75;;;16.58;100.00
25658;BME280;13517;59.320;18.042;2023-07-24T04:44:35;99746.41;;;16.51;100.00
25658;BME280;13517;59.320;18.042;2023-07-24T04:47:01;99799.22;;;16.85;100.00
25658;BME280;13517;59.320;18.042;2023-07-24T04:49:29;99781.28;;;16.82;100.00
25658;BME280;13517;59.320;18.042;2023-07-24T04:51:55;99775.31;;;16.79;100.00
25658;BME280;13517;59.320;18.042;2023-07-24T04:54:21;99769.84;;;16.79;100.00
25658;BME280;13517;59.320;18.042;2023-07-24T04:56:46;99778.03;;;16.79;100.00
25658;BME280;13517;59.320;18.042;2023-07-24T04:59:11;99749.38;;;16.66;100.00
25658;BME280;13517;59.320;18.042;2023-07-24T05:01:37;99795.84;;;16.99;100.00
25658;BME280;13517;59.320;18.042;2023-07-24T05:04:02;99741.59;;;16.80;100.00
25658;BME280;13517;59.320;18.042;2023-07-24T05:06:28;99755.69;;;17.10;100.00
25658;BME280;13517;59.320;18.042;2023-07-24T05:08:53;99777.25;;;17.29;100.00
25658;BME280;13517;59.320;18.042;2023-07-24T05:11:19;99789.88;;;17.47;100.00
25658;BME280;13517;59.320;18.042;2023-07-24T05:13:44;99777.94;;;17.40;100.00
25658;BME280;13517;59.320;18.042;2023-07-24T05:16:11;99762.59;;;17.47;100.00
25658;BME280;13517;59.320;18.042;2023-07-24T05:18:36;99776.25;;;17.55;100.00
25658;BME280;13517;59.320;18.042;2023-07-24T05:21:02;99773.50;;;17.55;100.00
25658;BME280;13517;59.320;18.042;2023-07-24T05:23:27;99756.09;;;17.56;100.00
25658;BME280;13517;59.320;18.042;2023-07-24T05:26:00;99744.16;;;17.49;100.00
25658;BME280;13517;59.320;18.042;2023-07-24T05:28:29;99747.59;;;17.68;100.00
25658;BME280;13517;59.320;18.042;2023-07-24T05:30:55;99774.22;;;17.91;100.00
25658;BME280;13517;59.320;18.042;2023-07-24T05:33:21;99781.59;;;18.07;100.00
25658;BME280;13517;59.320;18.042;2023-07-24T05:35:48;99753.03;;;17.84;100.00
25658;BME280;13517;59.320;18.042;2023-07-24T05:38:14;99733.75;;;17.78;100.00
25658;BME280;13517;59.320;18.042;2023-07-24T05:40:39;99731.88;;;17.87;100.00
25658;BME280;13517;59.320;18.042;2023-07-24T05:43:04;99776.09;;;18.15;100.00
25658;BME280;13517;59.320;18.042;2023-07-24T05:45:30;99737.66;;;17.92;100.00
25658;BME280;13517;59.320;18.042;2023-07-24T05:47:55;99735.78;;;18.01;100.00
25658;BME280;13517;59.320;18.042;2023-07-24T05:50:20;99755.44;;;18.13;100.00
25658;BME280;13517;59.320;18.042;2023-07-24T05:52:46;99743.16;;;18.17;100.00
25658;BME280;13517;59.320;18.042;2023-07-24T05:55:11;99736.28;;;18.29;100.00
25658;BME280;13517;59.320;18.042;2023-07-24T05:57:37;99763.25;;;18.41;100.00
25658;BME280;13517;59.320;18.042;2023-07-24T06:00:04;99773.16;;;18.50;100.00
25658;BME280;13517;59.320;18.042;2023-07-24T06:02:30;99731.31;;;18.24;100.00
25658;BME280;13517;59.320;18.042;2023-07-24T06:04:55;99743.97;;;18.34;100.00
25658;BME280;13517;59.320;18.042;2023-07-24T06:07:20;99744.00;;;18.26;100.00
25658;BME280;13517;59.320;18.042;2023-07-24T06:09:46;99766.03;;;18.16;100.00
25658;BME280;13517;59.320;18.042;2023-07-24T06:12:11;99734.94;;;17.83;100.00
25658;BME280;13517;59.320;18.042;2023-07-24T06:14:36;99711.06;;;17.52;100.00
25658;BME280;13517;59.320;18.042;2023-07-24T06:17:02;99720.28;;;17.51;100.00
25658;BME280;13517;59.320;18.042;2023-07-24T06:19:27;99738.38;;;17.52;100.00
25658;BME280;13517;59.320;18.042;2023-07-24T06:21:53;99763.97;;;17.68;100.00
25658;BME280;13517;59.320;18.042;2023-07-24T06:24:18;99747.59;;;17.51;100.00
25658;BME280;13517;59.320;18.042;2023-07-24T06:26:44;99727.09;;;17.39;100.00
25658;BME280;13517;59.320;18.042;2023-07-24T06:29:09;99741.63;;;17.48;100.00
25658;BME280;13517;59.320;18.042;2023-07-24T06:31:34;99739.72;;;17.48;100.00
25658;BME280;13517;59.320;18.042;2023-07-24T06:34:00;99724.19;;;17.40;100.00
25658;BME280;13517;59.320;18.042;2023-07-24T06:36:25;99755.44;;;17.54;100.00
25658;BME280;13517;59.320;18.042;2023-07-24T06:38:51;99757.66;;;17.67;100.00
25658;BME280;13517;59.320;18.042;2023-07-24T06:41:16;99759.19;;;17.78;100.00
25658;BME280;13517;59.320;18.042;2023-07-24T06:43:42;99735.97;;;17.74;100.00
25658;BME280;13517;59.320;18.042;2023-07-24T06:46:08;99705.59;;;17.61;100.00
25658;BME280;13517;59.320;18.042;2023-07-24T06:48:33;99738.88;;;17.97;100.00
25658;BME280;13517;59.320;18.042;2023-07-24T06:50:58;99735.63;;;18.02;100.00
25658;BME280;13517;59.320;18.042;2023-07-24T06:53:24;99724.72;;;18.10;100.00
25658;BME280;13517;59.320;18.042;2023-07-24T06:55:49;99751.25;;;18.58;100.00
25658;BME280;13517;59.320;18.042;2023-07-24T06:58:15;99724.34;;;18.70;100.00
25658;BME280;13517;59.320;18.042;2023-07-24T07:00:40;99715.72;;;18.90;100.00
25658;BME280;13517;59.320;18.042;2023-07-24T07:03:05;99717.91;;;18.95;100.00
25658;BME280;13517;59.320;18.042;2023-07-24T07:05:34;99728.84;;;18.95;100.00
25658;BME280;13517;59.320;18.042;2023-07-24T07:07:59;99729.78;;;18.78;100.00
25658;BME280;13517;59.320;18.042;2023-07-24T07:10:25;99720.59;;;18.71;100.00
25658;BME280;13517;59.320;18.042;2023-07-24T07:12:50;99688.38;;;18.42;100.00
25658;BME280;13517;59.320;18.042;2023-07-24T07:15:15;99698.66;;;18.40;100.00
25658;BME280;13517;59.320;18.042;2023-07-24T07:17:41;99743.72;;;18.60;100.00
25658;BME280;13517;59.320;18.042;2023-07-24T07:20:06;99739.94;;;18.61;100.00
25658;BME280;13517;59.320;18.042;2023-07-24T07:22:32;99740.81;;;18.62;99.32
25658;BME280;13517;59.320;18.042;2023-07-24T07:24:57;99706.84;;;18.40;96.97
25658;BME280;13517;59.320;18.042;2023-07-24T07:27:23;99722.91;;;18.51;96.56
25658;BME280;13517;59.320;18.042;2023-07-24T07:29:48;99717.75;;;18.48;96.32
25658;BME280;13517;59.320;18.042;2023-07-24T07:32:14;99734.84;;;18.58;96.16
25658;BME280;13517;59.320;18.042;2023-07-24T07:34:39;99696.41;;;18.43;95.35
25658;BME280;13517;59.320;18.042;2023-07-24T07:37:05;99743.66;;;18.69;95.21
25658;BME280;13517;59.320;18.042;2023-07-24T07:39:31;99732.72;;;18.69;94.61
25658;BME280;13517;59.320;18.042;2023-07-24T07:41:57;99745.00;;;18.81;93.95
25658;BME280;13517;59.320;18.042;2023-07-24T07:44:23;99712.91;;;18.67;92.83
25658;BME280;13517;59.320;18.042;2023-07-24T07:46:48;99712.81;;;18.83;90.85
25658;BME280;13517;59.320;18.042;2023-07-24T07:49:14;99711.78;;;18.84;88.38
25658;BME280;13517;59.320;18.042;2023-07-24T07:51:39;99727.81;;;18.96;87.13
25658;BME280;13517;59.320;18.042;2023-07-24T07:54:04;99748.13;;;19.10;86.36
25658;BME280;13517;59.320;18.042;2023-07-24T07:56:30;99743.13;;;19.13;85.52
25658;BME280;13517;59.320;18.042;2023-07-24T07:58:55;99727.75;;;19.12;85.21
25658;BME280;13517;59.320;18.042;2023-07-24T08:01:20;99691.09;;;18.90;84.92
25658;BME280;13517;59.320;18.042;2023-07-24T08:03:46;99698.44;;;18.89;84.35
25658;BME280;13517;59.320;18.042;2023-07-24T08:06:11;99741.09;;;19.15;83.97
25658;BME280;13517;59.320;18.042;2023-07-24T08:08:37;99692.63;;;18.84;84.00
25658;BME280;13517;59.320;18.042;2023-07-24T08:11:06;99736.66;;;19.14;84.11
25658;BME280;13517;59.320;18.042;2023-07-24T08:13:33;99723.97;;;19.13;84.86
25658;BME280;13517;59.320;18.042;2023-07-24T08:15:59;99689.72;;;18.86;83.71
25658;BME280;13517;59.320;18.042;2023-07-24T08:18:25;99722.31;;;19.04;83.60
25658;BME280;13517;59.320;18.042;2023-07-24T08:20:51;99736.66;;;19.14;84.15
25658;BME280;13517;59.320;18.042;2023-07-24T08:23:16;99711.56;;;19.02;84.55
25658;BME280;13517;59.320;18.042;2023-07-24T08:25:53;99713.09;;;18.97;84.89
25658;BME280;13517;59.320;18.042;2023-07-24T08:28:19;99693.13;;;18.88;85.19
25658;BME280;13517;59.320;18.042;2023-07-24T08:30:45;99720.47;;;19.04;85.43
25658;BME280;13517;59.320;18.042;2023-07-24T08:33:12;99710.00;;;19.08;85.10
25658;BME280;13517;59.320;18.042;2023-07-24T08:35:38;99699.88;;;19.09;84.61
25658;BME280;13517;59.320;18.042;2023-07-24T08:38:03;99707.03;;;19.18;82.13
25658;BME280;13517;59.320;18.042;2023-07-24T08:40:28;99695.28;;;19.09;78.97
25658;BME280;13517;59.320;18.042;2023-07-24T08:42:54;99708.84;;;19.26;78.05
25658;BME280;13517;59.320;18.042;2023-07-24T08:45:20;99709.03;;;19.24;77.10
25658;BME280;13517;59.320;18.042;2023-07-24T08:47:45;99719.56;;;19.36;75.74
25658;BME280;13517;59.320;18.042;2023-07-24T08:50:11;99717.69;;;19.36;73.82
25658;BME280;13517;59.320;18.042;2023-07-24T08:52:38;99725.34;;;19.41;72.55
25658;BME280;13517;59.320;18.042;2023-07-24T08:55:05;99701.97;;;19.30;71.10
25658;BME280;13517;59.320;18.042;2023-07-24T08:57:31;99714.03;;;19.44;70.78
25658;BME280;13517;59.320;18.042;2023-07-24T08:59:56;99698.81;;;19.41;70.52
25658;BME280;13517;59.320;18.042;2023-07-24T09:02:23;99660.59;;;19.25;70.82
25658;BME280;13517;59.320;18.042;2023-07-24T09:04:48;99656.00;;;19.25;71.25
25658;BME280;13517;59.320;18.042;2023-07-24T09:07:13;99654.88;;;19.35;71.41
25658;BME280;13517;59.320;18.042;2023-07-24T09:09:39;99682.59;;;19.55;71.32
25658;BME280;13517;59.320;18.042;2023-07-24T09:12:05;99637.97;;;19.31;70.02
25658;BME280;13517;59.320;18.042;2023-07-24T09:14:30;99682.91;;;19.60;69.60
25658;BME280;13517;59.320;18.042;2023-07-24T09:17:07;99703.84;;;19.76;68.25
25658;BME280;13517;59.320;18.042;2023-07-24T09:19:33;99703.38;;;19.87;67.92
25658;BME280;13517;59.320;18.042;2023-07-24T09:22:12;99698.75;;;19.88;67.38
25658;BME280;13517;59.320;18.042;2023-07-24T09:24:38;99681.91;;;19.91;66.62
25658;BME280;13517;59.320;18.042;2023-07-24T09:27:06;99701.28;;;20.13;64.71
25658;BME280;13517;59.320;18.042;2023-07-24T09:29:33;99710.00;;;20.17;63.99
25658;BME280;13517;59.320;18.042;2023-07-24T09:31:59;99695.50;;;20.08;63.80
25658;BME280;13517;59.320;18.042;2023-07-24T09:34:25;99665.31;;;19.93;62.20
25658;BME280;13517;59.320;18.042;2023-07-24T09:36:53;99679.88;;;19.93;61.63
25658;BME280;13517;59.320;18.042;2023-07-24T09:39:24;99655.00;;;19.80;61.79
25658;BME280;13517;59.320;18.042;2023-07-24T09:41:49;99673.69;;;19.91;61.84
25658;BME280;13517;59.320;18.042;2023-07-24T09:44:15;99642.34;;;19.79;60.66
25658;BME280;13517;59.320;18.042;2023-07-24T09:46:43;99649.25;;;19.90;60.40
25658;BME280;13517;59.320;18.042;2023-07-24T09:49:08;99705.16;;;20.19;59.98
25658;BME280;13517;59.320;18.042;2023-07-24T09:51:34;99678.03;;;20.09;60.05
25658;BME280;13517;59.320;18.042;2023-07-24T09:54:27;99695.81;;;20.13;59.55
25658;BME280;13517;59.320;18.042;2023-07-24T09:56:51;99668.19;;;19.99;60.17
25658;BME280;13517;59.320;18.042;2023-07-24T09:59:17;99673.19;;;19.96;59.35
25658;BME280;13517;59.320;18.042;2023-07-24T10:01:44;99686.44;;;20.07;58.63
25658;BME280;13517;59.320;18.042;2023-07-24T10:04:09;99679.00;;;19.93;58.68
25658;BME280;13517;59.320;18.042;2023-07-24T10:06:35;99688.28;;;19.92;59.23
25658;BME280;13517;59.320;18.042;2023-07-24T10:09:01;99653.09;;;19.65;59.59
25658;BME280;13517;59.320;18.042;2023-07-24T10:11:27;99683.91;;;19.82;59.80
25658;BME280;13517;59.320;18.042;2023-07-24T10:13:53;99682.75;;;19.77;60.17
25658;BME280;13517;59.320;18.042;2023-07-24T10:16:19;99683.44;;;19.79;60.28
25658;BME280;13517;59.320;18.042;2023-07-24T10:18:46;99678.78;;;19.79;60.46
25658;BME280;13517;59.320;18.042;2023-07-24T10:21:12;99682.31;;;19.88;60.36
25658;BME280;13517;59.320;18.042;2023-07-24T10:23:45;99693.03;;;19.98;60.46
25658;BME280;13517;59.320;18.042;2023-07-24T10:26:14;99681.91;;;19.99;60.50
25658;BME280;13517;59.320;18.042;2023-07-24T10:28:41;99665.06;;;20.03;59.88
25658;BME280;13517;59.320;18.042;2023-07-24T10:31:08;99670.09;;;20.14;59.89
25658;BME280;13517;59.320;18.042;2023-07-24T10:33:46;99648.78;;;20.01;60.03
25658;BME280;13517;59.320;18.042;2023-07-24T10:36:12;99665.25;;;20.16;60.59
25658;BME280;13517;59.320;18.042;2023-07-24T10:38:41;99650.22;;;20.12;60.51
25658;BME280;13517;59.320;18.042;2023-07-24T10:41:09;99662.53;;;20.31;60.39
25658;BME280;13517;59.320;18.042;2023-07-24T10:43:46;99631.41;;;20.09;59.48
25658;BME280;13517;59.320;18.042;2023-07-24T10:46:12;99643.16;;;20.18;59.68
25658;BME280;13517;59.320;18.042;2023-07-24T10:48:42;99633.78;;;20.12;58.76
25658;BME280;13517;59.320;18.042;2023-07-24T10:51:09;99663.84;;;20.20;58.57
25658;BME280;13517;59.320;18.042;2023-07-24T10:53:35;99663.00;;;20.35;58.06
25658;BME280;13517;59.320;18.042;2023-07-24T10:56:02;99639.72;;;20.31;57.42
25658;BME280;13517;59.320;18.042;2023-07-24T10:58:27;99637.06;;;20.37;56.85
25658;BME280;13517;59.320;18.042;2023-07-24T11:00:53;99614.97;;;20.24;56.01
25658;BME280;13517;59.320;18.042;2023-07-24T11:03:19;99662.78;;;20.51;55.67
25658;BME280;13517;59.320;18.042;2023-07-24T11:05:45;99638.97;;;20.37;55.66
25658;BME280;13517;59.320;18.042;2023-07-24T11:08:13;99661.09;;;20.50;55.81
25658;BME280;13517;59.320;18.042;2023-07-24T11:10:49;99637.63;;;20.33;55.39
25658;BME280;13517;59.320;18.042;2023-07-24T11:13:15;99666.88;;;20.55;55.34
25658;BME280;13517;59.320;18.042;2023-07-24T11:15:41;99633.94;;;20.40;55.17
25658;BME280;13517;59.320;18.042;2023-07-24T11:18:06;99639.25;;;20.42;55.44
25658;BME280;13517;59.320;18.042;2023-07-24T11:20:46;99636.88;;;20.39;55.66
25658;BME280;13517;59.320;18.042;2023-07-24T11:23:13;99657.13;;;20.53;56.14
25658;BME280;13517;59.320;18.042;2023-07-24T11:25:39;99642.25;;;20.47;56.82
25658;BME280;13517;59.320;18.042;2023-07-24T11:28:10;99669.03;;;20.60;57.19
25658;BME280;13517;59.320;18.042;2023-07-24T11:30:36;99662.31;;;20.63;56.79
25658;BME280;13517;59.320;18.042;2023-07-24T11:33:06;99636.41;;;20.50;56.75
25658;BME280;13517;59.320;18.042;2023-07-24T11:35:33;99644.59;;;20.65;57.21
25658;BME280;13517;59.320;18.042;2023-07-24T11:38:00;99646.56;;;20.72;58.11
25658;BME280;13517;59.320;18.042;2023-07-24T11:40:35;99651.78;;;20.66;58.53
25658;BME280;13517;59.320;18.042;2023-07-24T11:43:02;99649.19;;;20.43;59.05
25658;BME280;13517;59.320;18.042;2023-07-24T11:45:28;99598.19;;;20.34;59.34
25658;BME280;13517;59.320;18.042;2023-07-24T11:47:54;99595.84;;;20.31;58.55
25658;BME280;13517;59.320;18.042;2023-07-24T11:50:20;99611.34;;;20.38;58.56
25658;BME280;13517;59.320;18.042;2023-07-24T11:52:50;99639.88;;;20.59;58.21
25658;BME280;13517;59.320;18.042;2023-07-24T11:55:18;99633.16;;;20.62;58.76
25658;BME280;13517;59.320;18.042;2023-07-24T11:57:58;99611.13;;;20.55;59.20
25658;BME280;13517;59.320;18.042;2023-07-24T12:00:24;99631.47;;;20.82;59.28
25658;BME280;13517;59.320;18.042;2023-07-24T12:02:50;99602.88;;;20.70;58.80
25658;BME280;13517;59.320;18.042;2023-07-24T12:05:16;99616.56;;;20.85;58.34
25658;BME280;13517;59.320;18.042;2023-07-24T12:07:43;99610.53;;;20.75;58.20
25658;BME280;13517;59.320;18.042;2023-07-24T12:10:12;99570.00;;;20.40;58.10
25658;BME280;13517;59.320;18.042;2023-07-24T12:12:45;99602.03;;;20.54;58.01
25658;BME280;13517;59.320;18.042;2023-07-24T12:15:12;99626.53;;;20.71;57.73
25658;BME280;13517;59.320;18.042;2023-07-24T12:17:39;99622.25;;;20.68;57.68
25658;BME280;13517;59.320;18.042;2023-07-24T12:20:05;99621.81;;;20.65;57.72
25658;BME280;13517;59.320;18.042;2023-07-24T12:22:32;99586.28;;;20.41;57.41
25658;BME280;13517;59.320;18.042;2023-07-24T12:24:57;99579.88;;;20.34;56.07
25658;BME280;13517;59.320;18.042;2023-07-24T12:27:23;99569.84;;;20.26;56.06
25658;BME280;13517;59.320;18.042;2023-07-24T12:29:50;99611.53;;;20.52;57.14
25658;BME280;13517;59.320;18.042;2023-07-24T12:32:16;99572.34;;;20.21;57.42
25658;BME280;13517;59.320;18.042;2023-07-24T12:34:41;99603.13;;;20.38;58.41
25658;BME280;13517;59.320;18.042;2023-07-24T12:37:07;99600.56;;;20.37;58.24
25658;BME280;13517;59.320;18.042;2023-07-24T12:39:32;99614.56;;;20.42;58.22
25658;BME280;13517;59.320;18.042;2023-07-24T12:41:57;99588.66;;;20.30;57.32
25658;BME280;13517;59.320;18.042;2023-07-24T12:44:23;99604.63;;;20.41;57.42
25658;BME280;13517;59.320;18.042;2023-07-24T12:46:48;99541.34;;;20.06;57.58